Česky Dansk Deutsch English Español Suomi Français Magyar Italiano Nederlands norsk Polski Português svenska Türkçe

 

Het Weer

Groningen Airport Eelde (Nederland)

06:25, 20 augustus 2016 (GMT)

NWNNE
WE
SWSSE
Home            
Groningen Airport Eelde Leeuwarden Meppen-Mil Nordhorn Wittmundhaven Jever Twenthe Lelystad Rheine-Bentlage Hopsten Vlieland De Kooy Deelen Diepholz Muenster / Osnabrueck Lemwerder Soesterberg Bremen De Bilt Amsterdam Airport Schiphol Nordholz Kalkar Niederrhein

Om een weerknop op uw website of weblog te plaatsen, copieer onderstaande code en plak die in uw pagina. In het eerste vakje staat HTML-code, in het tweede vakje UBB-code.


Add to Google

Details

Wind speed:3 bf, 8 kn, 4.1 m/s, 9.2 miles/h, 14.8 km/h
Wind direction:S, 180° - WSW, 240°
Visibility:Greater than 10000 m, 10 km, 32800 ft, 6.2 miles
Clouds:Ein wenig bewölkt at 900 ft, 274 m
Temperature:17°C, 63°F
Dew-point:15°C, 59°F
Atmospheric pressure:1008 hPa, 756.1 mmHg, 29.77 inHg, 0.995 atm
Relative humidity:88.0 %
METAR:EHGG 200625Z AUTO 20008KT 180V240 9999 FEW009 17/15 Q1008 NOSIG

Snelkoppelingen

Actuele weersinformatie van de hele wereld. Voeg locaties toe met het plus (+) symbool. Deze snelkoppelingen kunnen worden toegevoegd aan Google.

Lid van de Technetium groep

website free tracking
StatCounter NetStat W3C Validator

24-10-2020 07:32:18
astro.technetium.be money.technetium.be phote.technetium.be tafeltennistafel.technetium.be www.ligfiets.net